Time;durP1;ratioP1;P1;durP2;ratioP2;P2;SDS_P1;SDS_P2;PMS_P1;PMS_P2;Temp;Humidity;BMP_temperature;BMP_pressure;BME280_temperature;BME280_humidity;BME280_pressure;Samples;Min_cycle;Max_cycle;Signal;HPM_P1;HPM_P2
2022/04/21 00:01:42;;;;;;;6.38;5.88;;;6.70;99.90;;;;;;4998100;28;20839;-75
2022/04/21 00:04:10;;;;;;;6.05;5.53;;;6.60;99.90;;;;;;4998380;28;20837;-72
2022/04/21 00:06:38;;;;;;;6.53;5.60;;;6.60;99.90;;;;;;4998257;28;20203;-73
2022/04/21 00:09:07;;;;;;;7.65;5.97;;;6.60;99.90;;;;;;4998022;27;20207;-73
2022/04/21 00:11:35;;;;;;;5.93;5.38;;;6.50;99.90;;;;;;4998594;28;20237;-73
2022/04/21 00:14:04;;;;;;;5.72;5.22;;;6.50;99.90;;;;;;4998143;28;20199;-73
2022/04/21 00:16:31;;;;;;;6.05;5.55;;;6.60;99.90;;;;;;4997470;28;20210;-73
2022/04/21 00:18:59;;;;;;;7.18;6.57;;;6.60;99.90;;;;;;4997632;28;20205;-74
2022/04/21 00:23:25;;;;;;;6.95;6.10;;;6.50;99.90;;;;;;4998897;27;20843;-75
2022/04/21 00:24:15;;;;;;;6.47;5.88;;;6.50;99.90;;;;;;4999610;28;20234;-77
2022/04/21 00:26:43;;;;;;;7.10;6.38;;;6.50;99.90;;;;;;5000347;28;20211;-74
2022/04/21 00:29:10;;;;;;;6.32;5.65;;;6.50;99.90;;;;;;5000691;28;20199;-73
2022/04/21 00:31:38;;;;;;;7.22;6.38;;;6.40;99.90;;;;;;4998857;28;20210;-73
2022/04/21 00:34:06;;;;;;;6.28;5.22;;;6.50;99.90;;;;;;4997652;28;20780;-74
2022/04/21 00:36:34;;;;;;;9.70;5.07;;;6.40;99.90;;;;;;4997640;28;20203;-72
2022/04/21 00:39:02;;;;;;;6.43;5.82;;;6.40;99.90;;;;;;4999317;28;20836;-75
2022/04/21 00:41:31;;;;;;;6.60;5.75;;;6.40;99.90;;;;;;4998547;27;20832;-74
2022/04/21 00:43:59;;;;;;;9.15;6.70;;;6.30;99.90;;;;;;4998925;28;20753;-76
2022/04/21 00:46:27;;;;;;;7.72;5.57;;;6.30;99.90;;;;;;4997512;28;20221;-73
2022/04/21 00:48:56;;;;;;;7.45;6.20;;;6.30;99.90;;;;;;4997583;28;20829;-72
2022/04/21 00:51:25;;;;;;;7.03;6.32;;;6.30;99.90;;;;;;4997864;28;20310;-73
2022/04/21 00:53:53;;;;;;;7.40;6.70;;;6.30;99.90;;;;;;4997117;27;20211;-72
2022/04/21 00:56:21;;;;;;;8.02;6.00;;;6.30;99.90;;;;;;4997565;28;20210;-73
2022/04/21 00:58:50;;;;;;;5.63;5.13;;;6.30;99.90;;;;;;4997178;28;20199;-72
2022/04/21 01:04:01;;;;;;;7.60;6.60;;;6.30;99.90;;;;;;5014682;27;20221;-71
2022/04/21 01:06:29;;;;;;;7.93;6.65;;;6.20;99.90;;;;;;5016768;28;20339;-71
2022/04/21 01:08:57;;;;;;;8.27;6.40;;;6.20;99.90;;;;;;5016682;28;20206;-72
2022/04/21 01:11:25;;;;;;;6.75;5.40;;;6.20;99.90;;;;;;5016659;28;20237;-73
2022/04/21 01:13:54;;;;;;;5.93;5.32;;;6.20;99.90;;;;;;5019014;28;20202;-74
2022/04/21 01:16:25;;;;;;;9.13;6.93;;;6.20;99.90;;;;;;5019794;28;20206;-78
2022/04/21 01:18:53;;;;;;;8.45;6.88;;;6.10;99.90;;;;;;5031076;27;20455;-73
2022/04/21 01:21:22;;;;;;;7.60;6.80;;;6.10;99.90;;;;;;5031318;28;20219;-72
2022/04/21 01:23:50;;;;;;;8.25;6.80;;;6.10;99.90;;;;;;5025843;28;20226;-73
2022/04/21 01:26:18;;;;;;;8.77;6.43;;;6.10;99.90;;;;;;5018582;28;20202;-73
2022/04/21 01:28:46;;;;;;;7.43;6.68;;;6.10;99.90;;;;;;5015344;27;20224;-71
2022/04/21 01:31:14;;;;;;;6.72;5.75;;;6.00;99.90;;;;;;5008603;28;20619;-73
2022/04/21 01:33:44;;;;;;;8.80;6.25;;;6.00;99.90;;;;;;4998503;28;20730;-73
2022/04/21 01:36:11;;;;;;;7.90;6.15;;;6.00;99.90;;;;;;4995366;28;20218;-74
2022/04/21 01:41:26;;;;;;;7.32;6.03;;;6.00;99.90;;;;;;5000269;28;20231;-74
2022/04/21 01:43:54;;;;;;;8.15;6.40;;;5.90;99.90;;;;;;4990387;28;20379;-74
2022/04/21 01:46:22;;;;;;;7.18;5.72;;;5.90;99.90;;;;;;4983678;28;20216;-74
2022/04/21 01:48:50;;;;;;;6.28;5.35;;;5.90;99.90;;;;;;4978479;28;20208;-74
2022/04/21 01:51:18;;;;;;;6.95;6.22;;;5.90;99.90;;;;;;4984671;28;20239;-75
2022/04/21 01:53:47;;;;;;;7.95;6.13;;;5.90;99.90;;;;;;4985085;28;20278;-75
2022/04/21 01:56:15;;;;;;;8.63;6.60;;;5.90;99.90;;;;;;4998073;28;20209;-74
2022/04/21 01:58:44;;;;;;;9.43;6.82;;;5.90;99.90;;;;;;4982920;28;20208;-74
2022/04/21 02:01:12;;;;;;;6.97;6.00;;;5.80;99.90;;;;;;4978809;28;20727;-73
2022/04/21 02:03:40;;;;;;;8.02;6.43;;;5.80;99.90;;;;;;4978468;28;20255;-73
2022/04/21 02:06:08;;;;;;;7.65;6.03;;;5.80;99.90;;;;;;4979173;28;20207;-73
2022/04/21 02:08:36;;;;;;;8.50;7.57;;;5.70;99.90;;;;;;4997273;27;20336;-73
2022/04/21 02:11:05;;;;;;;7.43;6.10;;;5.70;99.90;;;;;;4998158;28;20219;-78
2022/04/21 02:13:33;;;;;;;7.07;6.38;;;5.80;99.90;;;;;;4998123;28;20209;-68
2022/04/21 02:16:01;;;;;;;6.70;6.05;;;5.80;99.90;;;;;;4998072;28;20911;-71
2022/04/21 02:18:29;;;;;;;8.70;6.50;;;5.70;99.90;;;;;;4999345;28;20213;-73
2022/04/21 02:20:57;;;;;;;6.38;5.78;;;5.70;99.90;;;;;;5001225;28;20227;-73
2022/04/21 02:23:25;;;;;;;7.68;6.47;;;5.70;99.90;;;;;;5000705;28;20729;-73
2022/04/21 02:25:53;;;;;;;6.65;5.75;;;5.70;99.90;;;;;;4987859;28;20738;-70
2022/04/21 02:28:23;;;;;;;6.68;6.05;;;5.70;99.90;;;;;;4981093;28;20670;-72
2022/04/21 02:30:50;;;;;;;7.22;6.53;;;5.70;99.90;;;;;;4981248;28;20227;-73
2022/04/21 02:33:18;;;;;;;7.72;6.97;;;5.70;99.90;;;;;;4981425;28;20211;-71
2022/04/21 02:35:47;;;;;;;7.30;6.57;;;5.70;99.90;;;;;;4981494;28;20208;-71
2022/04/21 02:38:15;;;;;;;9.80;6.20;;;5.70;99.90;;;;;;4980103;28;20708;-71
2022/04/21 02:40:43;;;;;;;9.23;6.30;;;5.80;99.90;;;;;;4980953;28;20238;-72
2022/04/21 02:43:11;;;;;;;6.32;5.63;;;5.80;99.90;;;;;;4980961;28;20282;-71
2022/04/21 02:45:42;;;;;;;8.63;7.80;;;5.80;99.90;;;;;;4981862;28;20234;-72
2022/04/21 02:48:10;;;;;;;9.45;7.07;;;5.70;99.90;;;;;;4994797;27;20287;-75
2022/04/21 02:50:38;;;;;;;7.47;5.88;;;5.70;99.90;;;;;;5000009;28;20207;-73
2022/04/21 02:53:06;;;;;;;8.25;5.25;;;5.70;99.90;;;;;;5000947;28;20199;-74
2022/04/21 02:58:20;;;;;;;6.72;6.00;;;5.70;99.90;;;;;;5000935;28;20211;-75
2022/04/21 03:00:50;;;;;;;8.70;6.07;;;5.70;99.90;;;;;;5000889;28;20234;-74
2022/04/21 03:03:18;;;;;;;7.13;6.43;;;5.70;99.90;;;;;;5000019;28;20219;-73
2022/04/21 03:05:46;;;;;;;9.65;6.25;;;5.70;99.90;;;;;;5000481;28;20210;-69
2022/04/21 03:08:14;;;;;;;7.10;6.40;;;5.70;99.90;;;;;;4999731;28;20419;-72
2022/04/21 03:10:41;;;;;;;9.35;6.88;;;5.70;99.90;;;;;;4999701;28;20239;-72
2022/04/21 03:13:09;;;;;;;6.55;5.40;;;5.70;99.90;;;;;;5000046;27;20289;-72
2022/04/21 03:15:37;;;;;;;6.82;6.28;;;5.70;99.90;;;;;;5000594;28;20203;-72
2022/04/21 03:18:07;;;;;;;8.27;6.68;;;5.70;99.90;;;;;;4990791;28;20231;-72
2022/04/21 03:26:05;;;;;;;6.25;5.60;;;5.50;99.90;;;;;;4980594;28;20208;-72
2022/04/21 03:28:33;;;;;;;7.50;5.97;;;5.50;99.90;;;;;;4980679;28;20203;-72
2022/04/21 03:31:01;;;;;;;9.93;6.03;;;5.50;99.90;;;;;;4990564;28;20239;-71
2022/04/21 03:33:30;;;;;;;9.43;5.28;;;5.50;99.90;;;;;;4998095;28;20268;-72
2022/04/21 03:35:58;;;;;;;7.78;6.63;;;5.40;99.90;;;;;;5001580;28;20282;-72
2022/04/21 03:38:26;;;;;;;7.78;6.97;;;5.40;99.90;;;;;;5002299;28;20275;-71
2022/04/21 03:40:53;;;;;;;7.20;6.60;;;5.40;99.90;;;;;;5003654;28;20266;-72
2022/04/21 03:43:21;;;;;;;11.18;7.22;;;5.30;99.90;;;;;;4994125;28;20310;-70
2022/04/21 03:45:49;;;;;;;8.52;6.40;;;5.30;99.90;;;;;;4988143;28;20332;-73
2022/04/21 03:48:17;;;;;;;8.50;6.68;;;5.30;99.90;;;;;;4992727;28;20733;-71
2022/04/21 03:50:46;;;;;;;15.38;7.68;;;5.20;99.90;;;;;;4990975;28;20230;-71
2022/04/21 03:53:14;;;;;;;7.82;6.82;;;5.20;99.90;;;;;;4989065;28;20647;-71
2022/04/21 03:55:42;;;;;;;11.45;7.47;;;5.20;99.90;;;;;;4991671;28;20230;-71
2022/04/21 03:58:10;;;;;;;11.82;8.10;;;5.20;99.90;;;;;;4998064;28;20257;-71
2022/04/21 04:00:38;;;;;;;12.52;7.53;;;5.20;99.90;;;;;;4982224;28;20203;-71
2022/04/21 04:03:06;;;;;;;8.02;7.22;;;5.20;99.90;;;;;;4980817;28;20203;-72
2022/04/21 04:05:35;;;;;;;11.40;6.88;;;5.20;99.90;;;;;;4981169;28;20718;-71
2022/04/21 04:10:53;;;;;;;8.38;7.55;;;5.20;99.90;;;;;;4981743;28;20310;-71
2022/04/21 04:13:21;;;;;;;7.80;6.53;;;5.20;99.90;;;;;;4980844;28;20696;-71
2022/04/21 04:15:51;;;;;;;10.65;6.50;;;5.20;99.90;;;;;;4980284;28;20208;-71
2022/04/21 04:18:20;;;;;;;10.02;7.22;;;5.20;99.90;;;;;;4980161;28;20271;-72
2022/04/21 04:20:48;;;;;;;11.85;7.85;;;5.30;99.90;;;;;;4982164;28;20237;-73
2022/04/21 04:23:17;;;;;;;10.30;7.30;;;5.30;99.90;;;;;;4979940;28;20319;-70
2022/04/21 04:25:46;;;;;;;9.80;6.80;;;5.30;99.90;;;;;;4979356;28;20240;-70
2022/04/21 04:28:14;;;;;;;8.35;5.93;;;5.30;99.90;;;;;;4979629;28;20239;-70
2022/04/21 04:30:43;;;;;;;8.05;6.22;;;5.40;99.90;;;;;;4979654;28;20206;-71
2022/04/21 04:33:11;;;;;;;8.90;6.53;;;5.40;99.90;;;;;;4979779;28;20265;-70
2022/04/21 04:35:39;;;;;;;8.35;6.28;;;5.50;99.90;;;;;;4979473;28;20374;-69
2022/04/21 04:38:07;;;;;;;7.57;6.78;;;5.50;99.90;;;;;;4978813;28;20230;-68
2022/04/21 04:40:36;;;;;;;7.15;6.47;;;5.60;99.90;;;;;;4979083;28;20200;-69
2022/04/21 04:43:03;;;;;;;6.90;6.20;;;5.60;99.90;;;;;;4979564;28;20215;-69
2022/04/21 04:48:17;;;;;;;7.68;5.78;;;5.70;99.90;;;;;;4979108;28;20412;-69
2022/04/21 04:50:46;;;;;;;9.35;6.68;;;5.60;99.90;;;;;;4984428;28;20648;-70
2022/04/21 04:53:14;;;;;;;10.73;6.68;;;5.80;99.90;;;;;;4999504;27;20759;-70
2022/04/21 04:55:44;;;;;;;8.07;6.10;;;5.80;99.90;;;;;;4998892;28;20207;-70
2022/04/21 04:58:12;;;;;;;6.47;5.43;;;5.90;99.90;;;;;;4998238;28;20211;-70
2022/04/21 05:00:39;;;;;;;7.18;5.43;;;5.90;99.90;;;;;;4999336;28;20217;-70
2022/04/21 05:03:07;;;;;;;6.35;5.40;;;6.00;99.90;;;;;;4995127;28;20226;-69
2022/04/21 05:05:35;;;;;;;8.95;6.22;;;6.00;99.90;;;;;;4979312;28;20255;-69
2022/04/21 05:08:06;;;;;;;10.13;6.18;;;6.00;99.90;;;;;;4980648;28;20211;-69
2022/04/21 05:10:34;;;;;;;6.70;5.95;;;6.00;99.90;;;;;;4986300;28;20690;-71
2022/04/21 05:13:04;;;;;;;8.02;6.70;;;6.10;99.90;;;;;;4988772;28;20207;-69
2022/04/21 05:15:32;;;;;;;7.68;6.03;;;6.10;99.90;;;;;;4991005;28;20211;-69
2022/04/21 05:18:01;;;;;;;7.28;5.05;;;6.20;99.90;;;;;;4990950;28;20294;-69
2022/04/21 05:20:29;;;;;;;6.32;5.72;;;6.30;99.90;;;;;;4993820;28;20303;-71
2022/04/21 05:23:05;;;;;;;6.20;5.13;;;6.40;99.90;;;;;;4994828;28;20199;-70
2022/04/21 05:25:36;;;;;;;7.35;5.80;;;6.50;99.90;;;;;;4999331;27;20318;-71
2022/04/21 05:28:09;;;;;;;8.07;6.10;;;6.60;99.90;;;;;;4997411;28;20215;-71
2022/04/21 05:30:55;;;;;;;5.88;5.22;;;6.70;99.90;;;;;;4979703;28;20261;-72
2022/04/21 05:33:24;;;;;;;6.43;4.93;;;6.70;99.90;;;;;;4981237;28;20210;-72
2022/04/21 05:35:53;;;;;;;6.97;5.80;;;6.80;99.90;;;;;;4993482;27;20298;-72
2022/04/21 05:38:21;;;;;;;7.75;5.43;;;6.90;99.90;;;;;;4983117;28;20214;-73
2022/04/21 05:40:50;;;;;;;6.97;5.10;;;6.90;99.90;;;;;;4980714;28;20220;-73
2022/04/21 05:43:21;;;;;;;6.40;5.75;;;7.10;99.90;;;;;;4979446;28;20204;-72
2022/04/21 05:45:50;;;;;;;5.65;4.55;;;7.20;99.90;;;;;;4979256;28;20318;-73
2022/04/21 05:48:18;;;;;;;5.35;4.93;;;7.30;99.90;;;;;;4981489;28;20218;-75
2022/04/21 05:50:48;;;;;;;5.75;5.07;;;7.40;99.90;;;;;;4982601;28;20314;-76
2022/04/21 05:53:21;;;;;;;5.25;4.80;;;7.60;99.90;;;;;;4986592;28;20200;-76
2022/04/21 05:55:51;;;;;;;5.50;5.00;;;7.70;99.90;;;;;;5001856;28;20235;-77
2022/04/21 05:58:22;;;;;;;5.88;5.40;;;8.00;99.90;;;;;;5016924;28;20259;-75
2022/04/21 06:00:51;;;;;;;4.45;3.80;;;8.20;99.90;;;;;;5021114;28;20227;-76
2022/04/21 06:03:25;;;;;;;4.85;4.38;;;8.40;99.90;;;;;;5003081;28;20653;-75
2022/04/21 06:05:53;;;;;;;4.82;3.53;;;8.50;99.90;;;;;;5000280;28;20213;-76
2022/04/21 06:08:21;;;;;;;5.25;4.22;;;8.60;99.90;;;;;;4983194;28;20222;-76
2022/04/21 06:10:49;;;;;;;4.57;4.15;;;8.60;99.90;;;;;;4983705;28;20228;-76
2022/04/21 06:13:18;;;;;;;4.45;4.07;;;8.60;99.90;;;;;;4997962;28;20259;-76
2022/04/21 06:15:47;;;;;;;4.97;3.70;;;8.60;99.90;;;;;;5001439;28;20199;-76
2022/04/21 06:18:15;;;;;;;5.25;4.10;;;8.70;99.90;;;;;;4988500;28;20218;-76
2022/04/21 06:20:43;;;;;;;3.90;3.60;;;8.70;99.90;;;;;;5001557;28;20204;-76
2022/04/21 06:23:10;;;;;;;4.25;3.65;;;8.70;99.90;;;;;;5002137;27;20207;-76
2022/04/21 06:25:41;;;;;;;5.90;3.40;;;8.70;99.90;;;;;;4999012;28;20242;-77
2022/04/21 06:28:10;;;;;;;4.18;3.10;;;8.80;99.90;;;;;;4989024;28;20658;-75
2022/04/21 06:30:38;;;;;;;5.55;3.40;;;8.90;99.90;;;;;;4989311;28;20208;-75
2022/04/21 06:33:08;;;;;;;3.75;3.55;;;9.00;99.90;;;;;;4986391;28;20206;-74
2022/04/21 06:35:36;;;;;;;3.80;3.50;;;9.10;99.90;;;;;;4993453;28;20226;-74
2022/04/21 06:38:03;;;;;;;3.55;2.90;;;9.20;99.90;;;;;;4992269;28;20837;-75
2022/04/21 06:40:32;;;;;;;4.00;3.70;;;9.30;99.90;;;;;;4983310;28;20759;-75
2022/04/21 06:48:01;;;;;;;4.65;3.47;;;9.30;99.90;;;;;;4990480;27;20218;-75
2022/04/21 06:48:36;;;;;;;4.57;3.15;;;9.50;99.90;;;;;;4999692;28;20301;-76
2022/04/21 06:51:05;;;;;;;3.60;3.30;;;9.50;99.90;;;;;;5001361;28;20219;-77
2022/04/21 06:53:34;;;;;;;3.70;3.40;;;9.60;99.90;;;;;;4999704;28;20300;-77
2022/04/21 06:56:03;;;;;;;3.65;3.35;;;9.70;99.90;;;;;;5002922;27;20791;-74
2022/04/21 06:58:31;;;;;;;3.58;3.22;;;9.70;99.90;;;;;;5001131;28;20290;-76
2022/04/21 07:00:59;;;;;;;3.20;3.00;;;9.80;99.90;;;;;;4994655;28;20284;-76
2022/04/21 07:03:27;;;;;;;4.07;3.78;;;9.90;99.90;;;;;;5000474;28;20289;-75
2022/04/21 07:05:56;;;;;;;3.13;2.87;;;9.90;99.90;;;;;;5000939;27;20223;-77
2022/04/21 07:08:24;;;;;;;4.30;3.90;;;10.00;99.90;;;;;;4985989;28;20473;-76
2022/04/21 07:10:52;;;;;;;4.43;3.20;;;10.10;99.90;;;;;;4989657;28;20274;-76
2022/04/21 07:13:21;;;;;;;3.20;2.90;;;10.20;99.90;;;;;;4988009;28;20208;-76
2022/04/21 07:15:48;;;;;;;3.35;3.15;;;10.20;99.90;;;;;;4980783;28;20200;-76
2022/04/21 07:18:16;;;;;;;5.63;2.58;;;10.30;99.90;;;;;;4992557;27;20208;-77
2022/04/21 07:20:44;;;;;;;3.20;3.00;;;10.40;99.90;;;;;;4979988;28;20562;-77
2022/04/21 07:23:13;;;;;;;3.63;3.20;;;10.50;99.90;;;;;;4988123;28;20822;-77
2022/04/21 07:25:42;;;;;;;3.25;3.03;;;10.50;99.90;;;;;;4999316;28;20816;-76
2022/04/21 07:28:10;;;;;;;3.10;2.90;;;10.50;99.90;;;;;;5000618;28;20844;-76
2022/04/21 07:30:38;;;;;;;4.00;2.70;;;10.60;99.90;;;;;;4999916;28;20199;-76
2022/04/21 07:33:06;;;;;;;3.30;3.10;;;10.60;99.90;;;;;;4998835;28;20241;-76
2022/04/21 07:35:35;;;;;;;3.90;2.70;;;10.70;99.90;;;;;;4998850;28;20208;-76
2022/04/21 07:38:03;;;;;;;3.03;2.72;;;10.80;99.90;;;;;;4988341;28;20277;-76
2022/04/21 07:40:34;;;;;;;3.65;2.85;;;11.00;99.90;;;;;;4978372;28;20208;-76
2022/04/21 07:43:07;;;;;;;2.60;2.40;;;11.00;99.90;;;;;;4980307;28;20812;-77
2022/04/21 07:45:38;;;;;;;3.30;2.70;;;11.10;99.90;;;;;;4979618;28;20474;-77
2022/04/21 07:48:06;;;;;;;3.50;2.50;;;11.30;99.90;;;;;;4979370;28;20470;-75
2022/04/21 07:50:35;;;;;;;3.30;3.00;;;11.30;99.90;;;;;;4984044;28;20439;-75
2022/04/21 07:53:21;;;;;;;3.35;3.15;;;11.40;99.90;;;;;;4980574;28;20664;-75
2022/04/21 07:55:52;;;;;;;3.67;3.37;;;11.40;99.90;;;;;;4980628;28;20657;-75
2022/04/21 07:58:21;;;;;;;4.73;2.80;;;11.40;99.90;;;;;;4980366;28;20435;-74
2022/04/21 08:00:50;;;;;;;4.53;2.83;;;11.50;99.90;;;;;;4993644;28;20474;-77
2022/04/21 08:03:19;;;;;;;3.63;2.50;;;11.50;99.90;;;;;;4999270;28;20266;-75
2022/04/21 08:05:48;;;;;;;2.20;2.10;;;11.60;99.90;;;;;;4997673;28;20311;-75
2022/04/21 08:08:15;;;;;;;2.47;2.27;;;11.70;99.90;;;;;;4998436;28;20460;-75
2022/04/21 08:10:43;;;;;;;3.50;3.30;;;11.80;99.90;;;;;;5000331;28;20852;-75
2022/04/21 08:13:17;;;;;;;2.67;2.47;;;11.80;99.90;;;;;;4998986;28;20448;-75
2022/04/21 08:15:48;;;;;;;4.83;2.70;;;11.80;99.90;;;;;;4995472;28;20521;-75
2022/04/21 08:18:16;;;;;;;2.20;1.80;;;11.90;99.90;;;;;;5008962;28;20849;-77
2022/04/21 08:20:46;;;;;;;2.53;2.33;;;12.00;99.90;;;;;;4990412;28;20554;-75
2022/04/21 08:23:13;;;;;;;2.10;2.00;;;12.10;99.90;;;;;;4980087;28;20454;-77
2022/04/21 08:34:24;;;;;;;2.20;2.10;;;12.20;99.90;;;;;;4996005;28;20818;-74
2022/04/21 08:36:54;;;;;;;2.50;2.30;;;12.20;99.90;;;;;;4997974;28;20423;-75
2022/04/21 08:39:25;;;;;;;2.33;2.10;;;12.20;99.90;;;;;;4996661;28;20443;-74
2022/04/21 08:42:01;;;;;;;3.53;1.90;;;12.20;99.90;;;;;;5011219;28;20526;-74
2022/04/21 08:44:33;;;;;;;3.37;3.17;;;12.30;99.90;;;;;;5014060;28;20520;-74
2022/04/21 08:47:06;;;;;;;2.40;2.20;;;12.30;99.90;;;;;;5014640;27;21004;-73
2022/04/21 08:49:34;;;;;;;1.93;1.80;;;12.30;99.90;;;;;;5009842;28;20495;-74
2022/04/21 08:52:03;;;;;;;5.67;2.07;;;12.40;99.90;;;;;;4995979;28;20553;-75
2022/04/21 08:54:32;;;;;;;2.07;1.97;;;12.50;99.90;;;;;;4987410;28;20454;-74
2022/04/21 08:57:01;;;;;;;2.73;2.53;;;12.60;99.90;;;;;;5001140;28;20870;-74
2022/04/21 08:59:30;;;;;;;1.60;1.50;;;12.70;99.90;;;;;;4994530;28;20714;-75
2022/04/21 09:01:59;;;;;;;2.90;1.90;;;12.70;99.90;;;;;;4980243;28;20566;-74
2022/04/21 09:04:29;;;;;;;2.10;1.93;;;12.80;99.90;;;;;;4979624;28;20475;-75
2022/04/21 09:07:12;;;;;;;2.73;2.53;;;12.80;99.90;;;;;;4991991;28;20482;-75
2022/04/21 09:09:40;;;;;;;2.00;1.60;;;12.90;99.90;;;;;;4992066;28;20537;-75
2022/04/21 09:12:19;;;;;;;2.47;2.00;;;12.90;99.90;;;;;;4986615;28;20656;-74
2022/04/21 09:14:49;;;;;;;1.90;1.80;;;13.00;99.90;;;;;;4997764;28;20437;-74
2022/04/21 09:17:17;;;;;;;1.87;1.77;;;13.00;99.90;;;;;;4979937;28;20465;-72
2022/04/21 09:19:56;;;;;;;3.77;2.30;;;13.10;99.90;;;;;;4989669;28;20447;-75
2022/04/21 09:22:25;;;;;;;2.27;2.17;;;13.10;99.90;;;;;;4994913;28;20523;-74
2022/04/21 09:24:53;;;;;;;1.60;1.50;;;13.10;99.90;;;;;;4988563;28;20558;-75
2022/04/21 09:27:21;;;;;;;2.33;1.93;;;13.20;99.90;;;;;;4992723;28;20526;-72
2022/04/21 09:29:56;;;;;;;3.03;2.83;;;13.30;99.90;;;;;;4994900;28;21109;-73
2022/04/21 09:32:24;;;;;;;3.57;2.47;;;13.40;99.90;;;;;;4994263;28;20473;-75
2022/04/21 09:34:53;;;;;;;2.30;2.10;;;13.50;99.90;;;;;;4990483;27;20455;-75
2022/04/21 09:37:21;;;;;;;3.13;1.80;;;13.50;99.90;;;;;;4992374;28;20446;-75
2022/04/21 09:39:53;;;;;;;2.10;2.00;;;13.60;99.90;;;;;;4990011;28;20458;-73
2022/04/21 09:42:25;;;;;;;2.60;2.40;;;13.60;99.90;;;;;;4996971;28;20446;-73
2022/04/21 09:47:50;;;;;;;2.00;1.73;;;13.70;99.90;;;;;;4991591;28;20558;-73
2022/04/21 09:50:19;;;;;;;5.23;2.07;;;13.80;99.90;;;;;;4994062;28;20508;-74
2022/04/21 09:52:48;;;;;;;2.47;2.37;;;13.90;99.90;;;;;;4987328;28;20457;-73
2022/04/21 09:55:25;;;;;;;1.87;1.77;;;13.90;99.90;;;;;;4995275;28;20457;-71
2022/04/21 09:58:03;;;;;;;3.10;2.53;;;14.00;99.90;;;;;;4999023;28;21180;-72
2022/04/21 10:00:34;;;;;;;2.23;2.03;;;14.00;99.90;;;;;;4995100;28;20449;-72
2022/04/21 10:03:04;;;;;;;3.00;1.83;;;14.00;99.90;;;;;;4996493;27;20469;-72
2022/04/21 10:05:35;;;;;;;3.37;2.10;;;14.10;99.90;;;;;;4998361;28;20536;-71
2022/04/21 10:08:05;;;;;;;2.97;2.73;;;14.20;99.90;;;;;;4995023;28;20493;-72
2022/04/21 10:10:34;;;;;;;2.70;2.50;;;14.20;99.90;;;;;;4994956;28;20446;-72
2022/04/21 10:13:04;;;;;;;2.50;2.30;;;14.30;99.90;;;;;;4991776;28;20480;-74
2022/04/21 10:15:35;;;;;;;2.20;2.10;;;14.30;99.90;;;;;;4989849;28;20455;-74
2022/04/21 10:18:06;;;;;;;3.40;3.07;;;14.40;99.90;;;;;;4991959;28;20462;-72
2022/04/21 10:20:34;;;;;;;3.53;3.23;;;14.40;99.90;;;;;;4981894;28;20480;-70
2022/04/21 10:23:04;;;;;;;4.20;3.80;;;14.30;99.90;;;;;;4979951;28;20534;-72
2022/04/21 10:25:40;;;;;;;4.80;3.70;;;14.40;99.90;;;;;;4980212;28;20445;-72
2022/04/21 10:28:39;;;;;;;4.97;4.50;;;14.60;99.90;;;;;;4985760;28;20780;-71
2022/04/21 10:31:31;;;;;;;4.03;3.53;;;14.80;99.90;;;;;;4999921;28;20470;-71
2022/04/21 10:34:01;;;;;;;4.10;3.77;;;14.80;99.90;;;;;;5008282;28;20450;-71
2022/04/21 10:36:37;;;;;;;3.27;3.07;;;14.90;99.90;;;;;;5009470;28;20561;-72
2022/04/21 10:39:26;;;;;;;5.60;3.73;;;15.10;99.90;;;;;;4985600;27;20500;-71
2022/04/21 10:42:11;;;;;;;4.57;3.40;;;15.30;99.90;;;;;;4993272;28;20512;-71
2022/04/21 10:44:47;;;;;;;4.60;3.40;;;15.50;99.90;;;;;;4990594;28;20446;-72
2022/04/21 10:47:33;;;;;;;4.17;3.77;;;15.70;99.90;;;;;;5017340;28;20589;-71
2022/04/21 10:50:04;;;;;;;6.73;4.23;;;15.80;99.90;;;;;;5018951;27;21120;-71
2022/04/21 10:58:51;;;;;;;6.40;4.20;;;15.80;99.90;;;;;;4979939;28;20510;-72
2022/04/21 11:01:28;;;;;;;4.20;3.77;;;15.80;99.90;;;;;;4984484;28;20457;-71
2022/04/21 11:04:11;;;;;;;6.70;4.00;;;15.70;99.90;;;;;;4999567;27;20454;-72
2022/04/21 11:06:42;;;;;;;6.10;3.83;;;15.80;99.90;;;;;;4988429;28;20942;-71
2022/04/21 11:09:33;;;;;;;4.03;3.60;;;15.70;99.90;;;;;;4997489;28;20438;-71
2022/04/21 11:12:43;;;;;;;7.67;3.33;;;15.80;99.90;;;;;;4990247;28;20522;-71
2022/04/21 11:15:30;;;;;;;2.53;2.20;;;15.80;99.90;;;;;;4990639;28;20441;-73
2022/04/21 11:18:02;;;;;;;3.90;3.03;;;15.90;99.90;;;;;;4989897;28;20985;-72
2022/04/21 11:20:31;;;;;;;3.80;3.30;;;15.90;99.90;;;;;;4992572;28;20464;-76
2022/04/21 11:22:59;;;;;;;3.63;3.33;;;16.00;99.90;;;;;;5003343;27;20466;-76
2022/04/21 11:25:32;;;;;;;3.30;2.80;;;16.20;99.90;;;;;;4996896;28;20443;-76
2022/04/21 11:28:00;;;;;;;2.73;2.53;;;16.30;99.90;;;;;;4985735;28;20470;-76
2022/04/21 11:30:30;;;;;;;3.17;2.67;;;16.50;99.50;;;;;;4991104;28;20488;-76
2022/04/21 11:32:58;;;;;;;3.80;3.30;;;16.60;99.60;;;;;;4992481;27;20483;-74
2022/04/21 11:35:26;;;;;;;4.23;3.80;;;16.70;99.50;;;;;;4994402;28;20450;-73
2022/04/21 11:37:59;;;;;;;3.80;3.50;;;16.70;99.60;;;;;;4993866;28;20515;-72
2022/04/21 11:40:33;;;;;;;3.50;3.20;;;16.70;99.40;;;;;;4992092;28;20462;-73
2022/04/21 11:43:03;;;;;;;3.00;2.70;;;16.70;99.50;;;;;;4989429;28;20435;-73
2022/04/21 11:45:36;;;;;;;3.80;3.10;;;16.70;99.30;;;;;;4989768;28;20446;-72
2022/04/21 11:48:12;;;;;;;4.03;3.37;;;16.70;99.40;;;;;;4997375;27;20485;-72
2022/04/21 11:50:45;;;;;;;3.87;3.47;;;16.70;99.40;;;;;;5009076;28;20457;-72
2022/04/21 11:53:20;;;;;;;3.43;3.23;;;16.60;99.60;;;;;;5005837;28;20453;-71
2022/04/21 11:55:49;;;;;;;4.00;2.60;;;16.50;99.20;;;;;;5007893;28;21142;-72
2022/04/21 11:58:28;;;;;;;2.70;2.50;;;16.30;98.90;;;;;;5017023;28;21173;-71
2022/04/21 12:06:45;;;;;;;3.43;2.23;;;16.30;99.30;;;;;;4996441;28;20477;-72
2022/04/21 12:09:22;;;;;;;2.80;2.60;;;16.40;99.60;;;;;;4995644;28;20580;-74
2022/04/21 12:11:53;;;;;;;3.80;2.33;;;16.60;99.50;;;;;;5015630;28;20475;-73
2022/04/21 12:14:21;;;;;;;2.40;2.20;;;16.60;99.30;;;;;;5017626;28;20448;-75
2022/04/21 12:16:52;;;;;;;2.27;2.00;;;16.70;99.30;;;;;;5017749;28;20453;-75
2022/04/21 12:19:29;;;;;;;3.07;2.50;;;16.80;99.10;;;;;;5017519;28;20514;-74
2022/04/21 12:21:59;;;;;;;2.60;2.40;;;16.80;99.10;;;;;;5017761;28;20665;-74
2022/04/21 12:24:38;;;;;;;3.20;2.90;;;17.00;99.30;;;;;;5017600;28;20448;-75
2022/04/21 12:27:12;;;;;;;4.00;2.37;;;17.00;99.00;;;;;;5019399;28;21169;-75
2022/04/21 12:29:51;;;;;;;3.60;2.50;;;16.90;98.80;;;;;;5021016;28;20485;-75
2022/04/21 12:32:21;;;;;;;2.83;2.50;;;16.90;99.00;;;;;;5021494;28;20525;-74
2022/04/21 12:34:50;;;;;;;4.13;2.93;;;16.90;98.80;;;;;;5019433;28;20490;-73
2022/04/21 12:37:27;;;;;;;3.90;2.60;;;16.80;98.90;;;;;;5019363;28;20524;-75
2022/04/21 12:39:58;;;;;;;9.90;3.60;;;16.70;98.90;;;;;;5019194;28;20465;-75
2022/04/21 12:42:47;;;;;;;3.57;2.60;;;16.60;98.80;;;;;;5008763;28;20713;-76
2022/04/21 12:45:17;;;;;;;3.10;2.90;;;16.40;99.10;;;;;;5013726;28;20445;-74
2022/04/21 12:47:46;;;;;;;3.70;2.73;;;16.30;99.40;;;;;;5018500;28;20470;-72
2022/04/21 12:50:20;;;;;;;2.67;2.43;;;16.30;99.80;;;;;;5011907;28;20538;-71
2022/04/21 12:52:49;;;;;;;6.00;3.70;;;16.40;99.90;;;;;;4998052;28;21051;-74
2022/04/21 12:55:26;;;;;;;3.67;3.00;;;16.40;99.60;;;;;;4997700;28;20799;-74
2022/04/21 12:58:02;;;;;;;3.80;3.50;;;16.30;99.50;;;;;;4998774;28;20446;-74
2022/04/21 13:00:30;;;;;;;5.47;3.27;;;16.20;99.90;;;;;;4999118;28;20462;-74
2022/04/21 13:02:59;;;;;;;4.03;3.03;;;16.20;99.80;;;;;;5001976;28;21019;-75
2022/04/21 13:05:27;;;;;;;3.93;3.50;;;16.20;99.90;;;;;;5032337;27;20469;-73
2022/04/21 13:07:55;;;;;;;4.20;3.80;;;16.40;99.70;;;;;;5033547;28;20469;-73
2022/04/21 13:10:23;;;;;;;3.20;3.00;;;16.40;99.60;;;;;;5020607;28;20447;-73
2022/04/21 13:12:52;;;;;;;7.83;3.60;;;16.40;99.80;;;;;;5015589;28;20508;-73
2022/04/21 13:15:21;;;;;;;5.60;3.40;;;16.50;99.90;;;;;;5005295;27;21138;-74
2022/04/21 13:17:49;;;;;;;3.87;3.57;;;16.50;99.60;;;;;;5005177;28;20538;-75
2022/04/21 13:21:52;;;;;;;5.50;3.67;;;16.50;99.50;;;;;;5010368;28;20612;-72
2022/04/21 13:23:07;;;;;;;3.93;3.47;;;16.30;99.60;;;;;;4988240;28;20469;-74
2022/04/21 13:25:41;;;;;;;7.83;3.70;;;16.30;99.60;;;;;;5003402;27;21135;-75
2022/04/21 13:28:11;;;;;;;3.70;3.03;;;16.10;99.80;;;;;;5006594;28;20456;-73
2022/04/21 13:30:39;;;;;;;5.03;4.13;;;16.10;99.90;;;;;;5002684;28;20457;-75
2022/04/21 13:33:21;;;;;;;3.57;3.27;;;16.10;99.90;;;;;;4997056;28;20531;-71
2022/04/21 13:35:50;;;;;;;4.20;3.80;;;16.10;99.90;;;;;;4998007;27;20477;-70
2022/04/21 13:38:18;;;;;;;8.13;3.77;;;16.10;99.90;;;;;;5002798;28;20532;-72
2022/04/21 13:40:46;;;;;;;6.83;3.47;;;16.00;99.90;;;;;;4999252;28;20470;-70
2022/04/21 13:43:15;;;;;;;7.60;3.93;;;15.80;99.90;;;;;;5016013;28;20450;-72
2022/04/21 13:46:03;;;;;;;3.60;3.30;;;15.70;99.90;;;;;;5003814;27;20469;-74
2022/04/21 13:48:32;;;;;;;4.27;3.50;;;15.40;99.90;;;;;;5024405;28;20690;-74
2022/04/21 13:51:03;;;;;;;10.10;3.80;;;15.30;99.90;;;;;;5023855;28;20917;-74
2022/04/21 13:53:31;;;;;;;4.40;4.00;;;15.30;99.90;;;;;;5019191;28;20453;-71
2022/04/21 13:56:06;;;;;;;4.87;3.30;;;15.40;99.90;;;;;;5005439;28;20498;-73